KSEE/SEE METAR and TAF weather

Enter ICAO airport designator
Station Type Date Time Source
KSEE METAR 2018/12/19 09:35 UTC NOAA

KSEE 190935Z AUTO 00000KT 4SM BR 09/08 A3018 RMK AO2


Station Type Date Time Source
KSEE Decoded METAR 2018/12/19 09:35 UTC NOAA

San Diego/El Cajon, Gillespie Field Airport, CA, United States (KSEE) 32-49-34N 116-58-20W
Dec 19, 2018 - 04:35 AM EST / 2018.12.19 0935 UTC
Wind: Calm:0
Visibility: 4 mile(s):0
Weather: mist
Temperature: 48 F (9 C)
Dew Point: 46 F (8 C)
Relative Humidity: 93%
Pressure (altimeter): 30.18 in. Hg (1022 hPa)
ob: KSEE 190935Z AUTO 00000KT 4SM BR 09/08 A3018 RMK AO2
cycle: 9

Station Type Date Time Source
KSEE TAF UTC NOAA

Error!


Example: see airport list